Time;durP1;ratioP1;P1;durP2;ratioP2;P2;SDS_P1;SDS_P2;PMS_P1;PMS_P2;Temp;Humidity;BMP_temperature;BMP_pressure;BME280_temperature;BME280_humidity;BME280_pressure;Samples;Min_cycle;Max_cycle;Signal;HPM_P1;HPM_P2
2023/05/05 00:02:20;;;;;;;0.33;0.33;;;12.50;99.90;;;;;;6157468;23;20080;-82
2023/05/05 00:04:46;;;;;;;1.13;0.43;;;12.50;99.90;;;;;;6157991;23;20070;-81
2023/05/05 00:07:12;;;;;;;3.10;0.47;;;12.50;99.90;;;;;;6184593;23;20333;-81
2023/05/05 00:09:37;;;;;;;0.90;0.70;;;12.40;99.90;;;;;;6158019;23;20025;-81
2023/05/05 00:12:03;;;;;;;0.73;0.60;;;12.50;99.90;;;;;;6158387;23;20017;-81
2023/05/05 00:14:29;;;;;;;1.13;0.50;;;12.40;99.90;;;;;;6186157;23;20017;-81
2023/05/05 00:16:55;;;;;;;0.40;0.40;;;12.40;99.90;;;;;;6186408;23;20454;-81
2023/05/05 00:19:21;;;;;;;0.70;0.70;;;12.40;99.90;;;;;;6186531;23;20036;-83
2023/05/05 00:21:46;;;;;;;0.40;0.40;;;12.40;99.90;;;;;;6134948;23;20060;-81
2023/05/05 00:24:12;;;;;;;0.23;0.23;;;12.30;99.90;;;;;;6185995;23;20020;-81
2023/05/05 00:26:38;;;;;;;0.57;0.50;;;12.30;99.90;;;;;;6159469;23;20021;-82
2023/05/05 00:29:03;;;;;;;1.40;0.40;;;12.30;99.90;;;;;;6159981;23;20104;-81
2023/05/05 00:31:29;;;;;;;0.57;0.50;;;12.30;99.90;;;;;;6159793;23;20017;-80
2023/05/05 00:33:55;;;;;;;0.80;0.80;;;12.30;99.90;;;;;;6159995;23;20063;-81
2023/05/05 00:36:20;;;;;;;0.40;0.40;;;12.20;99.90;;;;;;6186378;23;20476;-82
2023/05/05 00:38:46;;;;;;;0.70;0.70;;;12.20;99.90;;;;;;6159494;23;20043;-81
2023/05/05 00:41:12;;;;;;;0.43;0.43;;;12.20;99.90;;;;;;6160181;23;20071;-82
2023/05/05 00:43:37;;;;;;;0.57;0.50;;;12.20;99.90;;;;;;6134867;23;20342;-81
2023/05/05 00:46:13;;;;;;;2.23;0.90;;;12.20;99.90;;;;;;6186086;23;20441;-81
2023/05/05 00:48:39;;;;;;;0.63;0.63;;;12.20;99.90;;;;;;6159173;23;20017;-82
2023/05/05 00:51:08;;;;;;;0.67;0.63;;;12.20;99.90;;;;;;6159573;23;20071;-81
2023/05/05 00:53:34;;;;;;;0.50;0.50;;;12.20;99.90;;;;;;6185185;23;20044;-81
2023/05/05 00:56:00;;;;;;;1.83;0.80;;;12.20;99.90;;;;;;6186142;23;20063;-81
2023/05/05 00:58:28;;;;;;;0.93;0.45;;;12.10;99.90;;;;;;6159303;23;20437;-82
2023/05/05 01:00:53;;;;;;;0.40;0.40;;;12.10;99.90;;;;;;6159488;23;20378;-81
2023/05/05 01:03:19;;;;;;;1.23;0.37;;;12.10;99.90;;;;;;6159968;23;20028;-81
2023/05/05 01:06:17;;;;;;;0.32;0.32;;;12.00;99.90;;;;;;6158982;23;20017;-81
2023/05/05 01:09:06;;;;;;;0.88;0.88;;;12.00;99.90;;;;;;6185805;23;20059;-81
2023/05/05 01:11:47;;;;;;;0.93;0.43;;;12.00;99.90;;;;;;6102418;23;20028;-81
2023/05/05 01:14:19;;;;;;;0.32;0.32;;;12.00;99.90;;;;;;6185848;23;20092;-81
2023/05/05 01:17:09;;;;;;;0.28;0.28;;;12.00;99.90;;;;;;6185464;23;20028;-81
2023/05/05 01:20:12;;;;;;;1.13;0.57;;;12.00;99.90;;;;;;6159258;23;20113;-82
2023/05/05 01:22:55;;;;;;;0.40;0.40;;;12.00;99.90;;;;;;6158696;23;20017;-81
2023/05/05 01:25:48;;;;;;;0.40;0.40;;;11.90;99.90;;;;;;6159372;23;20076;-81
2023/05/05 01:28:35;;;;;;;0.70;0.57;;;11.90;99.90;;;;;;6159735;23;20021;-81
2023/05/05 01:31:34;;;;;;;0.60;0.60;;;11.90;99.90;;;;;;6159708;23;20017;-82
2023/05/05 01:34:06;;;;;;;0.32;0.32;;;11.90;99.90;;;;;;6159370;23;20445;-81
2023/05/05 01:36:35;;;;;;;0.57;0.57;;;11.90;99.90;;;;;;6185234;23;20022;-82
2023/05/05 01:39:03;;;;;;;0.50;0.40;;;11.90;99.90;;;;;;6185413;23;20017;-81
2023/05/05 01:41:44;;;;;;;0.90;0.40;;;11.90;99.90;;;;;;6159699;23;20021;-81
2023/05/05 01:44:12;;;;;;;0.63;0.57;;;11.90;99.90;;;;;;6159626;23;20097;-81
2023/05/05 01:46:38;;;;;;;0.57;0.47;;;11.90;99.90;;;;;;6185110;23;20027;-81
2023/05/05 01:49:04;;;;;;;0.80;0.77;;;11.90;99.90;;;;;;6185569;23;20021;-81
2023/05/05 01:51:31;;;;;;;0.82;0.60;;;11.90;99.90;;;;;;6158735;23;20438;-80
2023/05/05 01:53:59;;;;;;;0.35;0.35;;;11.90;99.90;;;;;;6158576;23;20021;-80
2023/05/05 01:56:26;;;;;;;0.68;0.60;;;11.80;99.90;;;;;;6134784;23;20333;-81
2023/05/05 01:58:53;;;;;;;0.20;0.20;;;11.90;99.90;;;;;;6158673;23;20148;-81
2023/05/05 02:01:25;;;;;;;2.38;0.32;;;11.80;99.90;;;;;;6185494;23;20021;-81
2023/05/05 02:03:53;;;;;;;0.40;0.40;;;11.80;99.90;;;;;;6158605;23;20021;-81
2023/05/05 02:06:20;;;;;;;0.45;0.45;;;11.80;99.90;;;;;;6185235;23;20028;-81
2023/05/05 02:08:48;;;;;;;0.40;0.40;;;11.80;99.90;;;;;;6158804;23;20021;-81
2023/05/05 02:11:15;;;;;;;0.50;0.50;;;11.80;99.90;;;;;;6158933;23;20438;-82
2023/05/05 02:13:43;;;;;;;0.32;0.32;;;12.60;99.90;;;;;;6185048;23;20021;-81
2023/05/05 02:16:09;;;;;;;0.30;0.30;;;11.80;99.90;;;;;;6159238;23;20013;-81
2023/05/05 02:18:35;;;;;;;;;;;11.80;99.90;;;;;;6159485;23;20411;-82
2023/05/05 02:21:01;;;;;;;0.38;0.38;;;11.80;99.90;;;;;;6158838;23;19927;-81
2023/05/05 02:23:28;;;;;;;0.32;0.32;;;11.80;99.90;;;;;;6185120;23;20021;-82
2023/05/05 02:25:56;;;;;;;;;;;11.80;99.90;;;;;;6185096;23;20017;-81
2023/05/05 02:29:02;;;;;;;0.32;0.30;;;11.70;99.90;;;;;;6185165;23;19923;-81
2023/05/05 02:31:31;;;;;;;0.50;0.28;;;11.80;99.90;;;;;;6040717;23;20019;-82
2023/05/05 02:34:00;;;;;;;0.45;0.40;;;11.70;99.90;;;;;;6135583;23;20290;-81
2023/05/05 02:36:28;;;;;;;0.77;0.47;;;11.70;99.90;;;;;;6158291;23;20017;-81
2023/05/05 02:39:03;;;;;;;0.20;0.20;;;11.70;99.90;;;;;;6184690;23;20028;-81
2023/05/05 02:41:31;;;;;;;1.05;0.57;;;11.70;99.90;;;;;;6134398;23;20020;-81
2023/05/05 02:44:01;;;;;;;0.65;0.65;;;11.70;99.90;;;;;;6184785;23;20013;-81
2023/05/05 02:46:27;;;;;;;0.70;0.40;;;11.70;99.90;;;;;;6184915;23;20017;-82
2023/05/05 02:48:53;;;;;;;0.32;0.32;;;11.60;99.90;;;;;;6157897;23;20024;-81
2023/05/05 02:51:19;;;;;;;0.67;0.50;;;11.60;99.90;;;;;;6184945;23;20017;-81
2023/05/05 02:53:45;;;;;;;0.97;0.30;;;11.60;99.90;;;;;;6184071;23;20245;-81
2023/05/05 02:56:41;;;;;;;2.45;1.13;;;11.60;99.90;;;;;;6158793;23;20028;-82
2023/05/05 02:59:41;;;;;;;0.47;0.45;;;11.60;99.90;;;;;;6158726;23;20013;-81
2023/05/05 03:02:16;;;;;;;0.55;0.55;;;11.60;99.90;;;;;;6158144;23;20061;-81
2023/05/05 03:04:47;;;;;;;0.40;0.40;;;11.50;99.90;;;;;;6184671;23;20013;-82
2023/05/05 03:07:20;;;;;;;1.10;0.80;;;11.60;99.90;;;;;;6158192;23;20020;-81
2023/05/05 03:10:02;;;;;;;0.52;0.52;;;11.50;99.90;;;;;;6184579;23;20057;-81
2023/05/05 03:12:54;;;;;;;1.08;0.40;;;11.50;99.90;;;;;;6185224;23;20048;-81
2023/05/05 03:15:26;;;;;;;0.40;0.40;;;11.50;99.90;;;;;;6158369;23;20092;-81
2023/05/05 03:17:55;;;;;;;0.40;0.40;;;11.40;99.90;;;;;;6184591;23;20323;-81
2023/05/05 03:20:21;;;;;;;0.32;0.30;;;11.00;99.90;;;;;;6159047;23;20017;-81
2023/05/05 03:22:47;;;;;;;0.40;0.40;;;11.40;99.90;;;;;;6157941;23;20020;-81
2023/05/05 03:25:13;;;;;;;0.40;0.40;;;11.40;99.90;;;;;;6158951;23;20021;-81
2023/05/05 03:27:40;;;;;;;0.40;0.40;;;11.30;99.90;;;;;;6158567;23;20049;-81
2023/05/05 03:30:06;;;;;;;0.88;0.70;;;11.30;99.90;;;;;;6158084;23;20453;-81
2023/05/05 03:32:32;;;;;;;0.98;0.43;;;11.30;99.90;;;;;;6158953;23;20024;-81
2023/05/05 03:34:58;;;;;;;0.40;0.40;;;11.30;99.90;;;;;;6158578;23;20024;-81
2023/05/05 03:37:23;;;;;;;0.50;0.40;;;11.30;99.90;;;;;;6159024;23;20450;-81
2023/05/05 03:39:49;;;;;;;0.33;0.33;;;11.30;99.90;;;;;;6185101;23;20450;-81
2023/05/05 03:42:15;;;;;;;0.83;0.60;;;11.30;99.90;;;;;;6109986;23;20021;-81
2023/05/05 03:44:41;;;;;;;0.77;0.70;;;11.30;99.90;;;;;;6134022;23;20107;-81
2023/05/05 03:47:06;;;;;;;0.87;0.40;;;11.30;99.90;;;;;;6133636;23;20020;-81
2023/05/05 03:49:32;;;;;;;1.20;1.17;;;11.30;99.90;;;;;;6185160;23;20476;-81
2023/05/05 03:51:58;;;;;;;1.13;0.53;;;11.30;99.90;;;;;;6133825;23;20020;-81
2023/05/05 03:54:23;;;;;;;0.40;0.40;;;11.30;99.90;;;;;;6133596;23;20024;-81
2023/05/05 03:56:49;;;;;;;0.40;0.30;;;11.30;99.90;;;;;;6184035;23;20121;-82
2023/05/05 03:59:16;;;;;;;0.63;0.63;;;11.40;99.90;;;;;;6183504;23;20023;-80
2023/05/05 04:01:41;;;;;;;;;;;11.40;99.90;;;;;;6158753;23;20024;-81
2023/05/05 04:04:08;;;;;;;1.50;0.68;;;11.40;99.90;;;;;;6158263;23;19916;-81
2023/05/05 04:06:34;;;;;;;0.90;0.55;;;11.40;99.90;;;;;;6158386;23;20016;-81
2023/05/05 04:08:59;;;;;;;1.23;0.80;;;11.40;99.90;;;;;;6158440;23;20078;-81
2023/05/05 04:11:25;;;;;;;0.60;0.60;;;11.40;99.90;;;;;;6158610;23;20066;-82
2023/05/05 04:13:51;;;;;;;0.93;0.93;;;11.40;99.90;;;;;;6158389;23;20067;-82
2023/05/05 04:16:16;;;;;;;0.70;0.70;;;11.40;99.90;;;;;;6184636;23;20017;-81
2023/05/05 04:18:42;;;;;;;0.30;0.30;;;11.40;99.90;;;;;;6134117;23;20414;-81
2023/05/05 04:21:08;;;;;;;1.67;0.57;;;11.40;99.90;;;;;;6184564;23;20021;-81
2023/05/05 04:23:33;;;;;;;1.23;0.60;;;11.30;99.90;;;;;;6133880;23;20013;-82
2023/05/05 04:25:59;;;;;;;0.53;0.50;;;11.20;99.90;;;;;;6184079;23;20024;-81
2023/05/05 04:28:25;;;;;;;0.87;0.63;;;11.10;99.90;;;;;;6184781;23;20028;-81
2023/05/05 04:30:50;;;;;;;0.97;0.80;;;11.00;99.90;;;;;;6134368;23;20025;-80
2023/05/05 04:33:16;;;;;;;0.90;0.60;;;11.00;99.90;;;;;;6133536;23;20017;-80
2023/05/05 04:35:42;;;;;;;1.33;0.77;;;11.00;99.90;;;;;;6185013;23;20021;-80
2023/05/05 04:38:07;;;;;;;1.53;0.80;;;10.90;99.90;;;;;;6158230;23;20088;-81
2023/05/05 04:40:38;;;;;;;0.60;0.57;;;10.80;99.90;;;;;;6158287;23;20017;-81
2023/05/05 04:43:05;;;;;;;0.98;0.70;;;10.80;99.90;;;;;;6133943;23;20059;-80
2023/05/05 04:45:31;;;;;;;1.30;0.70;;;10.80;99.90;;;;;;6134236;23;20032;-80
2023/05/05 04:47:57;;;;;;;0.80;0.80;;;10.80;99.90;;;;;;6184372;23;20438;-81
2023/05/05 04:50:22;;;;;;;2.13;1.33;;;10.80;99.90;;;;;;6184825;23;20036;-80
2023/05/05 04:52:48;;;;;;;0.93;0.70;;;10.70;99.90;;;;;;6184674;23;20024;-80
2023/05/05 04:55:14;;;;;;;0.80;0.80;;;10.80;99.90;;;;;;6157692;23;20080;-81
2023/05/05 04:57:39;;;;;;;2.00;1.20;;;10.70;99.90;;;;;;6184738;23;20323;-81
2023/05/05 05:00:06;;;;;;;1.13;0.63;;;10.60;99.90;;;;;;6185956;23;20024;-82
2023/05/05 05:02:32;;;;;;;0.73;0.73;;;10.60;99.90;;;;;;6160172;23;20013;-82
2023/05/05 05:04:57;;;;;;;0.63;0.53;;;10.50;99.90;;;;;;6159626;23;20553;-82
2023/05/05 05:07:23;;;;;;;0.53;0.47;;;10.40;99.90;;;;;;6186285;23;20079;-81
2023/05/05 05:09:49;;;;;;;0.87;0.63;;;10.40;99.90;;;;;;6186673;23;20021;-81
2023/05/05 05:12:14;;;;;;;0.70;0.60;;;10.30;99.90;;;;;;6135173;23;20025;-81
2023/05/05 05:14:40;;;;;;;0.57;0.50;;;10.30;99.90;;;;;;6160538;23;20021;-81
2023/05/05 05:17:06;;;;;;;0.67;0.67;;;10.30;99.90;;;;;;6186139;23;20445;-81
2023/05/05 05:19:32;;;;;;;1.33;0.80;;;10.20;99.90;;;;;;6160349;23;20025;-81
2023/05/05 05:21:57;;;;;;;2.20;1.17;;;10.20;99.90;;;;;;6186329;23;20024;-81
2023/05/05 05:24:26;;;;;;;1.07;0.60;;;10.20;99.90;;;;;;6185865;23;20089;-81
2023/05/05 05:26:52;;;;;;;0.73;0.73;;;10.20;99.90;;;;;;6184843;23;20307;-81
2023/05/05 05:29:19;;;;;;;2.53;1.20;;;10.20;99.90;;;;;;6159219;23;20022;-80
2023/05/05 05:31:44;;;;;;;0.57;0.57;;;10.30;99.90;;;;;;6162457;23;20577;-82
2023/05/05 05:34:10;;;;;;;0.47;0.43;;;10.30;99.90;;;;;;6185666;23;20037;-82
2023/05/05 05:36:36;;;;;;;1.90;0.97;;;10.30;99.90;;;;;;6186247;23;20024;-83
2023/05/05 05:39:02;;;;;;;0.77;0.67;;;10.30;99.90;;;;;;6135277;23;20013;-82
2023/05/05 05:41:27;;;;;;;0.60;0.60;;;10.30;99.90;;;;;;6186054;23;20028;-82
2023/05/05 05:43:53;;;;;;;1.40;0.70;;;10.40;99.90;;;;;;6111226;23;20020;-83
2023/05/05 05:46:19;;;;;;;1.00;1.00;;;10.40;99.90;;;;;;6159533;23;20051;-83
2023/05/05 05:48:44;;;;;;;1.47;0.50;;;10.50;99.90;;;;;;6134397;23;20017;-83
2023/05/05 05:51:10;;;;;;;1.23;0.83;;;10.50;99.90;;;;;;6185404;23;20021;-83
2023/05/05 05:53:36;;;;;;;1.40;0.83;;;10.60;99.90;;;;;;6159599;23;20064;-83
2023/05/05 05:56:01;;;;;;;1.90;1.23;;;10.70;99.90;;;;;;6184963;23;20017;-81
2023/05/05 05:58:27;;;;;;;2.07;1.03;;;10.80;99.90;;;;;;6185286;23;20059;-81
2023/05/05 06:00:53;;;;;;;4.40;1.17;;;10.90;99.90;;;;;;6159031;23;20028;-83
2023/05/05 06:03:18;;;;;;;0.70;0.70;;;10.90;99.90;;;;;;6183784;23;20021;-85
2023/05/05 06:05:45;;;;;;;1.50;1.10;;;11.00;99.90;;;;;;6159112;23;20017;-85
2023/05/05 06:08:11;;;;;;;0.55;0.55;;;11.10;99.90;;;;;;6134841;23;20033;-85
2023/05/05 06:10:37;;;;;;;0.87;0.70;;;11.10;99.90;;;;;;6159822;23;20056;-85
2023/05/05 06:13:02;;;;;;;1.53;0.83;;;11.20;99.90;;;;;;6186148;23;20021;-85
2023/05/05 06:15:28;;;;;;;0.80;0.53;;;11.30;99.90;;;;;;6185732;23;20354;-84
2023/05/05 06:17:54;;;;;;;1.87;1.07;;;11.40;99.90;;;;;;6159663;23;20012;-81
2023/05/05 06:20:19;;;;;;;1.27;1.17;;;11.40;99.90;;;;;;6184963;23;20075;-81
2023/05/05 06:22:45;;;;;;;1.50;0.77;;;11.50;99.90;;;;;;6159040;23;20446;-80
2023/05/05 06:25:11;;;;;;;0.77;0.53;;;11.50;99.90;;;;;;6184664;23;20021;-81
2023/05/05 06:27:36;;;;;;;0.80;0.80;;;11.60;99.90;;;;;;6185559;23;20021;-80
2023/05/05 06:30:02;;;;;;;1.77;0.80;;;11.70;99.90;;;;;;6184871;23;20049;-83
2023/05/05 06:32:28;;;;;;;0.95;0.60;;;11.80;99.90;;;;;;6184407;23;20244;-78
2023/05/05 06:34:54;;;;;;;0.97;0.70;;;12.00;99.90;;;;;;6156974;23;20460;-79
2023/05/05 06:37:19;;;;;;;1.43;1.00;;;12.00;99.90;;;;;;6184618;23;20040;-79
2023/05/05 06:39:45;;;;;;;0.67;0.67;;;12.00;99.90;;;;;;6159094;23;20043;-79
2023/05/05 06:42:11;;;;;;;1.57;1.20;;;12.00;99.90;;;;;;6162083;23;20404;-79
2023/05/05 06:44:36;;;;;;;1.30;0.80;;;12.00;99.90;;;;;;6185544;23;20013;-79
2023/05/05 06:47:03;;;;;;;1.67;1.00;;;12.00;99.90;;;;;;6185707;23;20021;-79
2023/05/05 06:49:28;;;;;;;1.33;0.93;;;11.90;99.90;;;;;;6157927;23;20021;-79
2023/05/05 06:51:54;;;;;;;0.60;0.60;;;11.90;99.90;;;;;;6158639;23;20031;-79
2023/05/05 06:54:20;;;;;;;0.83;0.83;;;11.90;99.90;;;;;;6184284;23;20021;-79
2023/05/05 06:56:45;;;;;;;2.03;1.03;;;11.90;99.90;;;;;;6185367;23;20032;-79
2023/05/05 06:59:11;;;;;;;1.73;1.00;;;11.90;99.90;;;;;;6187691;23;20472;-80
2023/05/05 07:01:37;;;;;;;1.73;1.60;;;11.90;99.90;;;;;;6158578;23;20013;-79
2023/05/05 07:04:03;;;;;;;1.53;0.80;;;11.90;99.90;;;;;;6158887;23;20071;-81
2023/05/05 07:06:28;;;;;;;1.60;0.80;;;12.00;99.90;;;;;;6158218;23;20032;-81
2023/05/05 07:08:54;;;;;;;0.47;0.47;;;12.10;99.90;;;;;;6185244;23;20357;-81
2023/05/05 07:11:20;;;;;;;1.20;0.85;;;12.10;99.90;;;;;;6184568;23;20012;-80
2023/05/05 07:13:45;;;;;;;0.63;0.63;;;12.40;99.90;;;;;;6184809;23;20456;-80
2023/05/05 07:16:11;;;;;;;1.53;0.93;;;12.90;99.90;;;;;;6158717;23;20080;-80
2023/05/05 07:18:37;;;;;;;1.30;1.00;;;13.50;99.90;;;;;;6157489;23;20507;-79
2023/05/05 07:21:05;;;;;;;1.53;1.10;;;13.90;99.90;;;;;;6184788;23;20022;-80
2023/05/05 07:23:31;;;;;;;1.35;0.80;;;14.20;99.90;;;;;;6133514;23;20449;-79
2023/05/05 07:25:57;;;;;;;1.48;0.95;;;14.50;99.90;;;;;;6158754;23;20095;-80
2023/05/05 07:28:22;;;;;;;1.65;0.73;;;14.80;99.90;;;;;;6158443;23;20009;-81
2023/05/05 07:30:48;;;;;;;1.02;0.90;;;15.10;99.90;;;;;;6184775;23;20048;-80
2023/05/05 07:33:14;;;;;;;1.02;0.85;;;15.40;99.90;;;;;;6184731;23;20013;-80
2023/05/05 07:35:40;;;;;;;1.80;0.80;;;15.70;99.90;;;;;;6158303;23;20448;-80
2023/05/05 07:38:05;;;;;;;0.85;0.70;;;16.00;99.90;;;;;;6184877;23;20071;-81
2023/05/05 07:40:32;;;;;;;1.98;1.00;;;16.30;99.90;;;;;;6157109;23;20421;-79
2023/05/05 07:42:58;;;;;;;0.98;0.93;;;16.30;99.90;;;;;;6158415;23;20017;-80
2023/05/05 07:45:24;;;;;;;1.58;0.82;;;16.50;99.90;;;;;;6158076;23;20449;-80
2023/05/05 07:47:50;;;;;;;1.27;0.63;;;16.60;99.90;;;;;;6158567;23;20086;-80
2023/05/05 07:50:16;;;;;;;1.52;0.80;;;16.80;99.90;;;;;;6158599;23;20021;-81
2023/05/05 07:52:42;;;;;;;1.35;0.77;;;17.00;99.90;;;;;;6184350;23;20013;-82
2023/05/05 07:55:09;;;;;;;1.77;1.00;;;17.20;99.90;;;;;;6184411;23;20016;-82
2023/05/05 07:57:34;;;;;;;0.85;0.57;;;17.40;99.90;;;;;;6158231;23;20008;-83
2023/05/05 08:00:00;;;;;;;1.35;1.02;;;17.70;99.90;;;;;;6184718;23;20489;-83
2023/05/05 08:02:26;;;;;;;1.42;1.00;;;17.80;99.90;;;;;;6157554;23;20016;-83
2023/05/05 08:04:51;;;;;;;1.45;1.05;;;18.10;99.90;;;;;;6184403;23;20016;-86
2023/05/05 08:07:17;;;;;;;0.70;0.70;;;18.30;99.90;;;;;;6184323;23;20021;-81
2023/05/05 08:09:43;;;;;;;0.85;0.82;;;18.50;99.90;;;;;;6184402;23;20495;-82
2023/05/05 08:12:08;;;;;;;;;;;18.70;99.90;;;;;;6185454;23;20020;-83
2023/05/05 08:14:35;;;;;;;1.17;0.77;;;18.70;99.90;;;;;;6158171;23;19912;-82
2023/05/05 08:17:01;;;;;;;1.00;0.70;;;18.90;99.90;;;;;;6155883;23;20028;-82
2023/05/05 08:19:26;;;;;;;1.50;0.85;;;19.10;99.90;;;;;;6156488;23;20035;-81
2023/05/05 08:21:52;;;;;;;;;;;19.30;99.90;;;;;;6157478;23;20035;-79
2023/05/05 08:24:18;;;;;;;1.25;1.00;;;19.30;99.90;;;;;;6157544;23;19970;-80
2023/05/05 08:26:43;;;;;;;;;;;19.40;99.90;;;;;;6184652;23;20044;-79
2023/05/05 08:29:09;;;;;;;1.20;1.10;;;19.60;99.90;;;;;;6187275;23;19916;-79
2023/05/05 08:31:35;;;;;;;;;;;19.80;99.90;;;;;;6184683;23;20021;-80
2023/05/05 08:34:03;;;;;;;2.10;0.90;;;20.00;99.90;;;;;;6186247;23;19927;-81
2023/05/05 08:36:28;;;;;;;1.02;0.88;;;20.20;99.90;;;;;;6185886;23;20350;-79
2023/05/05 08:38:54;;;;;;;;;;;20.40;99.90;;;;;;6186264;23;20453;-81
2023/05/05 08:41:20;;;;;;;2.05;0.98;;;20.10;99.90;;;;;;6185972;23;19918;-79
2023/05/05 08:43:46;;;;;;;;;;;20.00;99.90;;;;;;6159855;23;20078;-80
2023/05/05 08:46:13;;;;;;;0.63;0.63;;;19.90;99.90;;;;;;6163099;23;19939;-79
2023/05/05 08:48:41;;;;;;;0.90;0.85;;;20.10;99.90;;;;;;6159501;23;20024;-81
2023/05/05 08:51:09;;;;;;;1.10;1.00;;;20.30;99.90;;;;;;6159991;23;20021;-80
2023/05/05 08:53:52;;;;;;;1.92;1.50;;;20.50;99.90;;;;;;6184956;23;20017;-81
2023/05/05 08:56:20;;;;;;;2.10;1.30;;;21.00;99.90;;;;;;6186795;23;20021;-81
2023/05/05 08:58:48;;;;;;;1.90;1.10;;;21.20;99.90;;;;;;6186101;23;20112;-81
2023/05/05 09:01:15;;;;;;;1.80;1.15;;;21.30;99.90;;;;;;6187057;23;20013;-81
2023/05/05 09:03:42;;;;;;;1.30;1.20;;;21.30;99.90;;;;;;6186523;23;20071;-81
2023/05/05 09:06:08;;;;;;;1.45;1.33;;;21.40;99.90;;;;;;6160218;23;20021;-81
2023/05/05 09:08:36;;;;;;;2.10;1.45;;;21.50;99.90;;;;;;6186400;23;20027;-81
2023/05/05 09:11:02;;;;;;;2.22;1.27;;;21.60;99.90;;;;;;6186225;23;20021;-81
2023/05/05 09:13:29;;;;;;;;;;;21.80;99.90;;;;;;6187157;23;20056;-80
2023/05/05 09:15:54;;;;;;;;;;;21.80;99.90;;;;;;6160465;23;19916;-80
2023/05/05 09:18:20;;;;;;;1.75;1.40;;;21.90;99.90;;;;;;6186834;23;20416;-81
2023/05/05 09:20:46;;;;;;;2.58;1.30;;;22.00;99.90;;;;;;6185460;23;20112;-81
2023/05/05 09:23:13;;;;;;;1.95;1.58;;;22.10;99.90;;;;;;6186121;23;20028;-81
2023/05/05 09:25:41;;;;;;;1.88;1.20;;;22.20;99.90;;;;;;6185859;23;20009;-81
2023/05/05 09:28:12;;;;;;;1.65;1.13;;;22.30;99.90;;;;;;6160316;23;20111;-81
2023/05/05 09:30:39;;;;;;;2.05;1.67;;;22.50;99.90;;;;;;6185889;23;20017;-81
2023/05/05 09:33:05;;;;;;;1.33;1.00;;;22.80;99.90;;;;;;6160050;23;20092;-81
2023/05/05 09:35:51;;;;;;;1.60;0.95;;;22.80;99.90;;;;;;6186378;23;20017;-81
2023/05/05 09:38:19;;;;;;;3.08;1.73;;;22.60;99.90;;;;;;6186093;23;20023;-81
2023/05/05 09:40:53;;;;;;;1.48;1.10;;;22.60;99.90;;;;;;6185753;23;20052;-81
2023/05/05 09:43:21;;;;;;;1.73;1.30;;;22.60;99.90;;;;;;6186559;23;20017;-81
2023/05/05 09:45:50;;;;;;;2.38;1.65;;;22.80;99.90;;;;;;6158917;23;20013;-81
2023/05/05 09:48:23;;;;;;;1.13;1.02;;;22.80;99.90;;;;;;6160284;23;20064;-81
2023/05/05 09:50:49;;;;;;;3.22;1.90;;;22.60;99.90;;;;;;6185535;23;20049;-81
2023/05/05 09:53:14;;;;;;;;;;;22.40;99.90;;;;;;6186729;23;20515;-81
2023/05/05 09:55:40;;;;;;;1.30;1.20;;;22.20;99.90;;;;;;6185807;23;19995;-81
2023/05/05 09:58:18;;;;;;;;;;;22.00;99.90;;;;;;6186260;23;20072;-81
2023/05/05 10:00:45;;;;;;;;;;;21.90;99.90;;;;;;6159678;23;19927;-81
2023/05/05 10:03:11;;;;;;;1.23;1.05;;;21.60;99.90;;;;;;6186231;23;19962;-81
2023/05/05 10:05:59;;;;;;;1.90;1.33;;;21.50;99.90;;;;;;6135230;23;20060;-80
2023/05/05 10:08:28;;;;;;;1.42;1.00;;;21.30;99.90;;;;;;6159650;23;20449;-80
2023/05/05 10:10:59;;;;;;;1.40;1.13;;;21.20;99.90;;;;;;6159221;23;20468;-79
2023/05/05 10:13:26;;;;;;;1.42;1.10;;;21.40;99.90;;;;;;6185721;23;20020;-79
2023/05/05 10:15:54;;;;;;;1.42;1.13;;;21.60;99.90;;;;;;6185698;23;20053;-79
2023/05/05 10:18:23;;;;;;;1.17;1.05;;;21.90;99.90;;;;;;6185956;23;20023;-79
2023/05/05 10:21:00;;;;;;;2.17;0.90;;;21.90;99.90;;;;;;6185696;23;20096;-78
2023/05/05 10:23:42;;;;;;;2.08;1.60;;;22.10;99.90;;;;;;6159459;23;20013;-81
2023/05/05 10:26:12;;;;;;;2.35;1.52;;;22.00;99.90;;;;;;6185670;23;20087;-82
2023/05/05 10:28:53;;;;;;;1.88;1.33;;;22.00;99.90;;;;;;6159710;23;20055;-82
2023/05/05 10:31:28;;;;;;;2.85;1.30;;;22.20;99.90;;;;;;6159829;23;20096;-82
2023/05/05 10:34:04;;;;;;;2.33;2.03;;;22.40;99.90;;;;;;6185233;23;20013;-82
2023/05/05 10:36:30;;;;;;;2.85;1.70;;;22.60;99.90;;;;;;6186082;23;20020;-82
2023/05/05 10:38:58;;;;;;;1.90;1.73;;;22.70;99.90;;;;;;6158845;23;20376;-82
2023/05/05 10:41:25;;;;;;;1.80;1.30;;;22.70;99.90;;;;;;6134755;23;20017;-81
2023/05/05 10:43:55;;;;;;;2.53;1.40;;;22.60;99.90;;;;;;6185478;23;20028;-80
2023/05/05 10:46:21;;;;;;;1.75;0.90;;;22.40;99.90;;;;;;6185262;23;20468;-80
2023/05/05 10:48:55;;;;;;;;;;;22.30;99.90;;;;;;6185297;23;20017;-80
2023/05/05 10:51:49;;;;;;;2.17;1.67;;;22.30;99.90;;;;;;6159167;23;20025;-79
2023/05/05 10:54:21;;;;;;;2.08;1.35;;;22.60;99.90;;;;;;6134314;23;20017;-80
2023/05/05 10:56:48;;;;;;;1.33;1.00;;;22.90;99.90;;;;;;6185044;23;20021;-81
2023/05/05 10:59:35;;;;;;;1.90;0.90;;;23.00;99.90;;;;;;6185444;23;20017;-81
2023/05/05 11:02:24;;;;;;;1.33;1.10;;;23.20;99.90;;;;;;6158730;23;20025;-81
2023/05/05 11:05:02;;;;;;;1.92;1.20;;;23.20;99.90;;;;;;6184430;23;20015;-81
2023/05/05 11:07:28;;;;;;;1.58;0.88;;;23.10;99.90;;;;;;6158169;23;20021;-81
2023/05/05 11:09:55;;;;;;;;;;;23.10;99.90;;;;;;6183775;23;20345;-81
2023/05/05 11:12:21;;;;;;;1.38;0.95;;;23.10;99.90;;;;;;6185471;23;19916;-81
2023/05/05 11:14:46;;;;;;;;;;;23.10;99.90;;;;;;6185634;23;20013;-80
2023/05/05 11:17:44;;;;;;;1.23;1.00;;;23.10;99.90;;;;;;6159009;23;19916;-82
2023/05/05 11:20:10;;;;;;;1.90;1.30;;;23.20;99.90;;;;;;6185375;23;20056;-80
2023/05/05 11:22:55;;;;;;;;;;;23.10;99.90;;;;;;6185962;23;20021;-80
2023/05/05 11:25:37;;;;;;;1.63;1.23;;;23.00;99.90;;;;;;6184427;23;19927;-80
2023/05/05 11:28:17;;;;;;;1.40;1.23;;;22.80;99.90;;;;;;6158536;23;20389;-80
2023/05/05 11:30:55;;;;;;;1.38;1.15;;;22.60;99.90;;;;;;6159060;23;20024;-80
2023/05/05 11:33:28;;;;;;;1.58;1.20;;;22.30;99.90;;;;;;6185287;23;20157;-80
2023/05/05 11:35:58;;;;;;;1.73;1.15;;;22.20;99.90;;;;;;6184515;23;20017;-80
2023/05/05 11:38:52;;;;;;;0.82;0.75;;;22.10;99.90;;;;;;6159041;23;20031;-80
2023/05/05 11:41:26;;;;;;;4.90;1.17;;;22.00;99.90;;;;;;6159135;23;20460;-80
2023/05/05 11:44:15;;;;;;;0.40;0.40;;;21.90;99.90;;;;;;6157904;23;20020;-80
2023/05/05 11:47:03;;;;;;;1.40;0.73;;;21.80;99.90;;;;;;6185153;23;20021;-80
2023/05/05 11:49:36;;;;;;;0.60;0.47;;;21.70;99.90;;;;;;6166651;23;20017;-80
2023/05/05 11:52:08;;;;;;;0.55;0.50;;;21.60;99.90;;;;;;6158386;23;20327;-81
2023/05/05 11:54:36;;;;;;;1.08;0.55;;;21.70;99.90;;;;;;6158819;23;20070;-81
2023/05/05 11:57:07;;;;;;;1.52;0.82;;;21.70;99.90;;;;;;6184657;23;20021;-81
2023/05/05 11:59:35;;;;;;;0.50;0.50;;;21.80;99.90;;;;;;6158953;23;20052;-81
2023/05/05 12:02:02;;;;;;;1.33;1.08;;;21.80;99.90;;;;;;6184677;23;20025;-81
2023/05/05 12:04:29;;;;;;;1.35;0.90;;;21.80;99.90;;;;;;6158711;23;20059;-81
2023/05/05 12:06:56;;;;;;;0.77;0.60;;;21.80;99.90;;;;;;6184246;23;20021;-80
2023/05/05 12:09:22;;;;;;;0.70;0.50;;;21.80;99.90;;;;;;6184832;23;20017;-81
2023/05/05 12:11:55;;;;;;;;;;;21.70;99.90;;;;;;6159091;23;20024;-81
2023/05/05 12:14:23;;;;;;;0.50;0.25;;;21.60;99.90;;;;;;6185051;23;19920;-81
2023/05/05 12:16:55;;;;;;;0.30;0.30;;;21.40;99.90;;;;;;6158722;23;20024;-81
2023/05/05 12:19:22;;;;;;;0.40;0.20;;;21.40;99.90;;;;;;6158724;23;20017;-81
2023/05/05 12:21:48;;;;;;;0.60;0.47;;;21.40;99.90;;;;;;6184960;23;20020;-80
2023/05/05 12:24:14;;;;;;;0.15;0.15;;;21.50;99.90;;;;;;6183278;23;20095;-78
2023/05/05 12:26:40;;;;;;;0.40;0.40;;;21.50;99.90;;;;;;6194542;23;20021;-80
2023/05/05 12:29:06;;;;;;;0.90;0.55;;;21.50;99.90;;;;;;6137533;23;20024;-79
2023/05/05 12:31:40;;;;;;;0.50;0.40;;;21.50;99.90;;;;;;6161759;23;20013;-79
2023/05/05 12:34:09;;;;;;;2.80;1.17;;;21.50;99.90;;;;;;6134179;23;20017;-81
2023/05/05 12:36:36;;;;;;;0.20;0.20;;;21.50;99.90;;;;;;6185070;23;20021;-81
2023/05/05 12:39:03;;;;;;;0.35;0.30;;;21.40;99.90;;;;;;6184115;23;20096;-81
2023/05/05 12:41:30;;;;;;;0.55;0.20;;;21.30;99.90;;;;;;6184630;23;20017;-81
2023/05/05 12:44:00;;;;;;;0.20;0.20;;;21.20;99.90;;;;;;6184258;23;20453;-81
2023/05/05 12:46:28;;;;;;;0.25;0.22;;;21.10;99.90;;;;;;6184936;23;20025;-81
2023/05/05 12:49:03;;;;;;;0.50;0.50;;;21.00;99.90;;;;;;6158201;23;20484;-81
2023/05/05 12:51:30;;;;;;;0.45;0.20;;;20.80;99.90;;;;;;6184865;23;20097;-81
2023/05/05 12:54:04;;;;;;;1.02;0.30;;;20.70;99.90;;;;;;6158904;23;20033;-81
2023/05/05 12:56:35;;;;;;;0.30;0.30;;;20.60;99.90;;;;;;6184894;23;20330;-81
2023/05/05 12:59:03;;;;;;;0.43;0.20;;;20.50;99.90;;;;;;6184370;23;20084;-81
2023/05/05 13:01:29;;;;;;;0.50;0.20;;;20.40;99.90;;;;;;6134095;23;20393;-82
2023/05/05 13:04:04;;;;;;;;;;;20.20;99.90;;;;;;6134605;23;20016;-82